Time;durP1;ratioP1;P1;durP2;ratioP2;P2;SDS_P1;SDS_P2;PMS_P1;PMS_P2;Temp;Humidity;BMP_temperature;BMP_pressure;BME280_temperature;BME280_humidity;BME280_pressure;Samples;Min_cycle;Max_cycle;Signal;HPM_P1;HPM_P2
2023/12/20 00:00:08;;;;;;;15.57;8.43;;;;;;;4.07;96.10;98480.25;5051132;28;20039;-63
2023/12/20 00:02:33;;;;;;;15.07;9.15;;;;;;;4.12;96.18;98478.16;5032905;28;20029;-63
2023/12/20 00:04:59;;;;;;;16.25;8.80;;;;;;;3.84;95.85;98418.34;5045924;28;20109;-63
2023/12/20 00:07:25;;;;;;;13.38;8.40;;;;;;;4.09;96.62;98464.69;5045014;28;20542;-63
2023/12/20 00:09:50;;;;;;;14.00;8.50;;;;;;;3.72;96.05;98426.91;5039127;28;20037;-66
2023/12/20 00:12:18;;;;;;;15.18;9.02;;;;;;;3.80;95.91;98442.63;5044229;28;20031;-63
2023/12/20 00:14:46;;;;;;;13.90;8.20;;;;;;;3.94;97.34;98444.25;5040010;28;20054;-63
2023/12/20 00:17:11;;;;;;;15.65;9.15;;;;;;;4.00;98.31;98454.13;5050608;28;20025;-64
2023/12/20 00:19:36;;;;;;;16.55;9.38;;;;;;;4.08;97.65;98437.31;5052956;28;20029;-64
2023/12/20 00:22:02;;;;;;;14.32;8.52;;;;;;;4.24;98.09;98445.59;5060683;28;20036;-65
2023/12/20 00:24:30;;;;;;;15.43;8.52;;;;;;;4.16;96.91;98442.72;5048789;28;20068;-64
2023/12/20 00:26:58;;;;;;;14.38;8.90;;;;;;;4.11;97.76;98442.25;5049857;28;20024;-65
2023/12/20 00:29:23;;;;;;;14.35;8.80;;;;;;;4.14;98.32;98439.44;5034883;28;20507;-64
2023/12/20 00:31:48;;;;;;;14.90;8.40;;;;;;;4.14;99.01;98450.56;5049090;28;20100;-63
2023/12/20 00:34:14;;;;;;;16.80;8.60;;;;;;;4.21;98.51;98454.34;5054096;28;20129;-64
2023/12/20 00:36:39;;;;;;;16.02;8.70;;;;;;;4.11;98.56;98453.38;5054659;28;20099;-65
2023/12/20 00:39:04;;;;;;;14.75;9.05;;;;;;;4.02;98.91;98454.00;5048934;28;20981;-62
2023/12/20 00:41:30;;;;;;;15.43;8.65;;;;;;;4.06;98.76;98444.31;5050157;28;20028;-63
2023/12/20 00:43:55;;;;;;;14.73;8.48;;;;;;;4.16;99.40;98458.16;5055060;28;20021;-64
2023/12/20 00:46:22;;;;;;;18.17;9.27;;;;;;;4.20;98.07;98452.72;5046859;28;20058;-64
2023/12/20 00:48:47;;;;;;;12.98;7.78;;;;;;;4.10;98.69;98440.59;5052612;28;20024;-63
2023/12/20 00:51:13;;;;;;;16.98;8.55;;;;;;;4.17;98.12;98434.91;5041355;28;20112;-63
2023/12/20 00:53:40;;;;;;;14.85;8.73;;;;;;;4.11;98.45;98421.66;5036362;28;20036;-62
2023/12/20 00:56:06;;;;;;;15.15;8.38;;;;;;;4.04;97.92;98409.22;5054499;28;20033;-63
2023/12/20 00:58:32;;;;;;;15.85;8.05;;;;;;;4.13;97.65;98401.78;5053257;28;20031;-64
2023/12/20 01:00:59;;;;;;;12.60;8.43;;;;;;;3.84;97.15;98340.34;5051623;28;20222;-63
2023/12/20 01:03:25;;;;;;;14.60;8.70;;;;;;;4.08;97.53;98386.66;5051195;28;20036;-63
2023/12/20 01:05:52;;;;;;;13.48;7.82;;;;;;;4.07;97.13;98386.78;5043313;28;20041;-64
2023/12/20 01:08:18;;;;;;;13.82;7.40;;;;;;;4.02;97.72;98381.97;5054567;28;20027;-64
2023/12/20 01:10:43;;;;;;;12.65;7.85;;;;;;;3.96;97.64;98370.38;5044796;28;20029;-64
2023/12/20 01:13:09;;;;;;;11.68;6.93;;;;;;;3.94;97.48;98355.94;5048051;28;20024;-63
2023/12/20 01:15:34;;;;;;;13.60;7.72;;;;;;;4.02;96.73;98371.69;5051253;28;20663;-64
2023/12/20 01:17:59;;;;;;;12.10;7.03;;;;;;;3.70;97.88;98354.19;5047315;28;20083;-63
2023/12/20 01:20:27;;;;;;;13.00;8.15;;;;;;;3.75;98.70;98328.97;5049472;28;20480;-63
2023/12/20 01:22:55;;;;;;;11.60;7.40;;;;;;;3.70;100.00;98361.06;5053662;28;20021;-64
2023/12/20 01:25:21;;;;;;;11.45;7.07;;;;;;;3.81;100.00;98361.94;5048950;28;20800;-64
2023/12/20 01:27:46;;;;;;;10.85;6.95;;;;;;;3.90;100.00;98357.09;5036632;28;20020;-66
2023/12/20 01:30:12;;;;;;;11.52;7.35;;;;;;;3.93;99.14;98364.63;5036939;28;20618;-63
2023/12/20 01:32:37;;;;;;;13.80;7.53;;;;;;;3.64;98.71;98336.63;5053435;28;20037;-64
2023/12/20 01:35:03;;;;;;;13.02;7.63;;;;;;;3.78;98.75;98348.53;5048457;28;20668;-63
2023/12/20 01:37:29;;;;;;;13.35;7.32;;;;;;;4.04;99.14;98369.81;5044787;28;20036;-63
2023/12/20 01:39:54;;;;;;;15.40;8.07;;;;;;;4.10;98.80;98353.13;5045853;28;20025;-63
2023/12/20 01:42:19;;;;;;;11.68;7.45;;;;;;;3.75;99.33;98323.00;5050513;28;20029;-63
2023/12/20 01:44:47;;;;;;;16.90;7.70;;;;;;;3.71;99.10;98301.81;5048510;28;20739;-62
2023/12/20 01:47:13;;;;;;;14.15;7.10;;;;;;;4.10;100.00;98345.41;5046755;28;20024;-64
2023/12/20 01:49:39;;;;;;;16.17;7.53;;;;;;;4.12;100.00;98335.81;5033124;28;20043;-64
2023/12/20 01:52:04;;;;;;;15.02;7.45;;;;;;;4.03;100.00;98345.00;5045911;28;20035;-64
2023/12/20 01:54:35;;;;;;;14.57;7.55;;;;;;;4.17;99.30;98331.97;5046607;28;20125;-64
2023/12/20 01:57:03;;;;;;;11.90;7.10;;;;;;;4.14;100.00;98334.75;5047815;28;20028;-64
2023/12/20 01:59:31;;;;;;;13.80;7.28;;;;;;;4.08;99.61;98336.97;5050062;28;20395;-64
2023/12/20 02:02:00;;;;;;;15.30;7.40;;;;;;;4.01;100.00;98336.56;5052025;28;20143;-63
2023/12/20 02:04:25;;;;;;;13.95;7.45;;;;;;;4.20;100.00;98328.38;5028451;28;20077;-63
2023/12/20 02:06:52;;;;;;;12.20;7.13;;;;;;;4.23;100.00;98325.56;5044642;28;20656;-64
2023/12/20 02:09:22;;;;;;;13.02;7.60;;;;;;;4.35;100.00;98322.09;5026919;28;20114;-63
2023/12/20 02:11:49;;;;;;;10.10;6.57;;;;;;;4.22;100.00;98314.44;5048768;28;20067;-67
2023/12/20 02:14:17;;;;;;;11.55;6.78;;;;;;;4.31;100.00;98301.81;5034986;28;20134;-64
2023/12/20 02:16:42;;;;;;;12.82;7.22;;;;;;;4.28;100.00;98296.91;5047202;28;20028;-64
2023/12/20 02:19:13;;;;;;;13.55;7.35;;;;;;;4.35;100.00;98305.84;5051983;28;20086;-63
2023/12/20 02:21:40;;;;;;;14.02;7.63;;;;;;;4.36;100.00;98305.72;5050731;28;20021;-64
2023/12/20 02:24:06;;;;;;;15.82;7.72;;;;;;;4.11;100.00;98244.13;5040443;28;20044;-64
2023/12/20 02:26:34;;;;;;;12.38;7.32;;;;;;;4.25;100.00;98300.53;5042806;28;20081;-63
2023/12/20 02:29:02;;;;;;;11.20;6.93;;;;;;;4.19;100.00;98252.09;5037152;28;20120;-65
2023/12/20 02:31:31;;;;;;;11.60;6.68;;;;;;;4.52;99.48;98297.66;5043375;28;20020;-62
2023/12/20 02:33:58;;;;;;;11.80;6.63;;;;;;;4.27;99.49;98249.78;5033923;28;20169;-64
2023/12/20 02:36:23;;;;;;;12.45;6.53;;;;;;;4.44;100.00;98287.13;5049716;28;20040;-65
2023/12/20 02:38:51;;;;;;;12.18;6.30;;;;;;;4.39;99.89;98276.34;5044452;28;20095;-63
2023/12/20 02:41:18;;;;;;;10.75;6.80;;;;;;;4.21;99.17;98224.47;5052166;28;20120;-64
2023/12/20 02:43:44;;;;;;;10.85;6.60;;;;;;;4.55;98.53;98251.09;5030969;28;20032;-64
2023/12/20 02:46:09;;;;;;;12.23;7.47;;;;;;;4.16;98.22;98211.97;5045097;28;20040;-63
2023/12/20 02:48:34;;;;;;;11.90;7.05;;;;;;;4.48;98.71;98262.78;5048189;28;20461;-63
2023/12/20 02:51:00;;;;;;;12.90;7.50;;;;;;;4.26;98.27;98203.56;5051416;28;20027;-64
2023/12/20 02:53:25;;;;;;;10.23;6.53;;;;;;;4.54;97.74;98238.34;5033182;28;20660;-64
2023/12/20 02:55:55;;;;;;;12.70;7.15;;;;;;;4.24;98.15;98231.97;5029454;28;20048;-64
2023/12/20 02:58:20;;;;;;;12.85;6.70;;;;;;;4.29;97.96;98242.75;5048671;28;20052;-64
2023/12/20 03:00:46;;;;;;;10.77;6.35;;;;;;;4.03;99.25;98234.38;5052793;28;20472;-63
2023/12/20 03:03:11;;;;;;;14.10;7.55;;;;;;;4.07;100.00;98224.66;5047574;28;20108;-63
2023/12/20 03:05:37;;;;;;;13.25;7.32;;;;;;;4.24;99.90;98237.13;5045047;28;20038;-63
2023/12/20 03:08:02;;;;;;;11.05;7.05;;;;;;;4.15;99.94;98228.31;5043912;28;20025;-64
2023/12/20 03:10:27;;;;;;;12.57;6.65;;;;;;;4.30;99.42;98215.25;5050228;28;20036;-63
2023/12/20 03:12:55;;;;;;;11.20;6.68;;;;;;;4.26;100.00;98227.53;5052389;28;20039;-64
2023/12/20 03:15:23;;;;;;;12.13;6.97;;;;;;;4.40;99.45;98240.19;5049478;28;20098;-64
2023/12/20 03:17:48;;;;;;;14.07;7.88;;;;;;;4.51;98.70;98235.97;5046860;28;20598;-63
2023/12/20 03:20:14;;;;;;;11.60;6.38;;;;;;;4.43;98.49;98221.97;5038567;28;20106;-63
2023/12/20 03:22:42;;;;;;;11.57;6.47;;;;;;;4.09;99.23;98192.78;5050502;28;20017;-64
2023/12/20 03:25:09;;;;;;;12.50;7.45;;;;;;;4.31;99.62;98248.59;5054005;28;20178;-63
2023/12/20 03:27:39;;;;;;;10.90;6.20;;;;;;;4.12;100.00;98205.38;5054132;28;20050;-64
2023/12/20 03:30:06;;;;;;;13.93;6.70;;;;;;;4.46;100.00;98210.59;5029011;28;20032;-63
2023/12/20 03:32:31;;;;;;;11.25;6.05;;;;;;;4.45;100.00;98198.66;5037300;28;20094;-63
2023/12/20 03:34:56;;;;;;;11.55;6.90;;;;;;;4.21;100.00;98203.88;5053579;28;20507;-65
2023/12/20 03:37:23;;;;;;;14.10;6.88;;;;;;;4.32;99.97;98209.03;5049000;28;20025;-64
2023/12/20 03:39:48;;;;;;;12.75;6.68;;;;;;;4.39;99.84;98183.69;5045215;28;20119;-62
2023/12/20 03:42:14;;;;;;;11.57;6.45;;;;;;;4.42;100.00;98173.16;5036485;28;20546;-64
2023/12/20 03:44:40;;;;;;;11.45;6.82;;;;;;;4.31;100.00;98184.25;5049673;28;20127;-64
2023/12/20 03:47:05;;;;;;;12.98;6.80;;;;;;;4.21;99.96;98142.13;5037414;28;20025;-64
2023/12/20 03:49:33;;;;;;;11.68;6.55;;;;;;;4.48;100.00;98174.44;5049009;28;20533;-64
2023/12/20 03:51:59;;;;;;;15.95;6.60;;;;;;;4.57;99.92;98202.06;5054882;28;20112;-63
2023/12/20 03:54:24;;;;;;;11.23;6.22;;;;;;;4.48;100.00;98197.63;5048590;28;20094;-63
2023/12/20 03:56:50;;;;;;;10.48;6.00;;;;;;;4.30;100.00;98172.31;5053267;28;20498;-65
2023/12/20 03:59:18;;;;;;;10.25;6.28;;;;;;;4.43;100.00;98206.50;5053438;28;20125;-64
2023/12/20 04:01:46;;;;;;;11.07;6.05;;;;;;;4.11;100.00;98157.44;5049673;28;20040;-64
2023/12/20 04:04:14;;;;;;;12.82;7.18;;;;;;;4.11;100.00;98166.94;5045156;28;20129;-64
2023/12/20 04:06:42;;;;;;;10.68;6.68;;;;;;;4.41;100.00;98187.75;5049671;28;20036;-63
2023/12/20 04:09:11;;;;;;;10.88;6.43;;;;;;;4.50;100.00;98182.88;5054204;28;20120;-64
2023/12/20 04:11:37;;;;;;;10.60;6.18;;;;;;;4.46;99.98;98184.03;5046827;28;20018;-63
2023/12/20 04:14:02;;;;;;;12.18;6.70;;;;;;;4.55;99.61;98180.75;5049630;28;20040;-64
2023/12/20 04:16:30;;;;;;;10.93;6.50;;;;;;;4.39;99.58;98145.06;5033788;28;20029;-63
2023/12/20 04:18:55;;;;;;;13.77;6.82;;;;;;;4.44;98.93;98124.94;5035440;28;20396;-63
2023/12/20 04:21:23;;;;;;;12.68;7.05;;;;;;;4.70;99.68;98161.53;5032444;28;20548;-64
2023/12/20 04:23:48;;;;;;;12.27;6.78;;;;;;;4.45;99.94;98139.44;5055059;28;20396;-63
2023/12/20 04:26:13;;;;;;;10.82;6.60;;;;;;;4.58;99.53;98165.91;5037737;28;20119;-64
2023/12/20 04:28:43;;;;;;;11.85;6.15;;;;;;;4.65;99.33;98184.25;5030683;28;20558;-65
2023/12/20 04:31:09;;;;;;;11.57;6.28;;;;;;;4.69;99.95;98172.81;5056106;28;20140;-64
2023/12/20 04:33:34;;;;;;;10.35;6.03;;;;;;;4.47;99.70;98122.09;5044096;28;20163;-62
2023/12/20 04:36:00;;;;;;;9.95;6.32;;;;;;;4.65;99.98;98155.94;5029067;28;20024;-64
2023/12/20 04:38:25;;;;;;;9.30;5.75;;;;;;;4.47;100.00;98150.44;5040783;28;20060;-65
2023/12/20 04:40:53;;;;;;;9.50;5.93;;;;;;;4.47;100.00;98153.00;5048911;28;20792;-65
2023/12/20 04:43:18;;;;;;;10.20;5.88;;;;;;;4.55;100.00;98155.00;5049326;28;20025;-64
2023/12/20 04:45:47;;;;;;;10.75;5.80;;;;;;;4.66;100.00;98136.97;5033384;28;20032;-64
2023/12/20 04:48:15;;;;;;;10.68;6.07;;;;;;;4.68;100.00;98147.97;5051910;28;20044;-64
2023/12/20 04:50:40;;;;;;;9.95;5.80;;;;;;;4.45;99.95;98103.38;5056964;28;20035;-65
2023/12/20 04:53:05;;;;;;;11.55;6.55;;;;;;;4.80;100.00;98153.91;5035990;28;20073;-64
2023/12/20 04:55:31;;;;;;;11.50;7.00;;;;;;;4.72;100.00;98151.94;5033601;28;20052;-64
2023/12/20 04:57:59;;;;;;;10.85;6.28;;;;;;;4.72;100.00;98151.94;5032004;28;20843;-63
2023/12/20 05:00:24;;;;;;;12.95;6.80;;;;;;;4.61;100.00;98109.00;5051520;28;20067;-64
2023/12/20 05:02:49;;;;;;;10.32;6.53;;;;;;;4.94;99.12;98168.31;5055641;28;20114;-64
2023/12/20 05:05:20;;;;;;;12.43;6.80;;;;;;;4.70;100.00;98150.44;5036981;28;20139;-64
2023/12/20 05:07:47;;;;;;;14.60;7.70;;;;;;;4.68;100.00;98135.09;5051504;28;20032;-65
2023/12/20 05:10:13;;;;;;;11.18;6.47;;;;;;;4.73;100.00;98135.56;5032909;28;20033;-64
2023/12/20 05:12:43;;;;;;;14.25;7.38;;;;;;;4.69;100.00;98126.44;5053251;28;20142;-65
2023/12/20 05:15:08;;;;;;;11.10;6.65;;;;;;;4.83;100.00;98125.34;5041045;28;20699;-64
2023/12/20 05:17:36;;;;;;;11.30;6.72;;;;;;;4.69;100.00;98094.69;5043356;28;20172;-65
2023/12/20 05:20:02;;;;;;;10.77;7.00;;;;;;;4.71;100.00;98092.81;5047874;28;20174;-64
2023/12/20 05:22:30;;;;;;;10.75;6.57;;;;;;;4.78;99.85;98093.97;5053222;28;20408;-64
2023/12/20 05:24:55;;;;;;;11.50;6.47;;;;;;;4.90;100.00;98087.06;5051933;28;20028;-64
2023/12/20 05:27:20;;;;;;;9.77;6.03;;;;;;;4.94;99.38;98111.63;5048107;28;20027;-62
2023/12/20 05:29:46;;;;;;;10.60;5.82;;;;;;;4.95;99.59;98131.31;5048022;28;20104;-62
2023/12/20 05:32:14;;;;;;;9.40;5.95;;;;;;;4.97;99.53;98144.88;5050297;28;20372;-63
2023/12/20 05:34:39;;;;;;;12.18;5.90;;;;;;;5.00;98.84;98152.34;5049429;28;20040;-64
2023/12/20 05:37:04;;;;;;;10.07;6.10;;;;;;;4.87;98.83;98156.84;5047986;28;20094;-63
2023/12/20 05:39:30;;;;;;;9.55;5.70;;;;;;;4.89;98.93;98160.97;5033136;28;20075;-65
2023/12/20 05:41:58;;;;;;;11.02;5.80;;;;;;;5.01;99.06;98159.16;5050834;28;20102;-65
2023/12/20 05:44:26;;;;;;;10.98;5.93;;;;;;;5.09;99.38;98155.97;5048925;28;20111;-65
2023/12/20 05:46:51;;;;;;;11.90;6.45;;;;;;;4.97;98.51;98126.84;5045725;28;20032;-65
2023/12/20 05:49:17;;;;;;;13.15;6.57;;;;;;;5.17;98.45;98154.44;5051871;28;20029;-65
2023/12/20 05:51:42;;;;;;;8.90;5.72;;;;;;;5.19;98.59;98169.78;5046202;28;20123;-65
2023/12/20 05:54:09;;;;;;;11.80;6.40;;;;;;;5.09;98.68;98172.28;5055611;28;20052;-65
2023/12/20 05:56:37;;;;;;;11.90;6.82;;;;;;;5.10;98.54;98189.38;5041742;28;20747;-65
2023/12/20 05:59:05;;;;;;;10.35;6.50;;;;;;;5.07;99.11;98188.78;5032706;28;20892;-66
2023/12/20 06:01:30;;;;;;;11.27;6.47;;;;;;;5.11;98.91;98191.00;5040582;28;20029;-65
2023/12/20 06:04:00;;;;;;;11.07;5.90;;;;;;;4.97;99.30;98189.50;5041917;28;20058;-65
2023/12/20 06:06:26;;;;;;;10.77;6.65;;;;;;;5.07;98.85;98176.72;5026510;28;20021;-65
2023/12/20 06:08:51;;;;;;;12.95;6.82;;;;;;;5.17;99.19;98172.47;5027683;28;20115;-65
2023/12/20 06:11:17;;;;;;;12.88;6.97;;;;;;;4.86;100.00;98160.38;5040763;28;20227;-66
2023/12/20 06:13:44;;;;;;;12.25;7.07;;;;;;;5.03;100.00;98167.59;5043873;28;20122;-66
2023/12/20 06:16:10;;;;;;;10.73;6.22;;;;;;;4.88;100.00;98115.50;5040162;28;20456;-65
2023/12/20 06:18:36;;;;;;;12.38;5.82;;;;;;;5.28;100.00;98140.69;5030967;28;20055;-65
2023/12/20 06:21:02;;;;;;;11.05;6.50;;;;;;;5.34;100.00;98147.13;5039915;28;20654;-65
2023/12/20 06:23:30;;;;;;;12.63;6.72;;;;;;;5.20;100.00;98151.63;5044228;28;20025;-64
2023/12/20 06:25:55;;;;;;;12.20;6.80;;;;;;;5.13;100.00;98147.91;5043702;28;20122;-65
2023/12/20 06:28:23;;;;;;;11.25;7.10;;;;;;;5.24;100.00;98144.47;5048976;28;20119;-64
2023/12/20 06:30:49;;;;;;;12.50;7.35;;;;;;;5.26;100.00;98141.78;5042290;28;20029;-65
2023/12/20 06:33:15;;;;;;;11.77;7.50;;;;;;;5.36;100.00;98142.66;5044490;28;20039;-64
2023/12/20 06:35:40;;;;;;;13.77;7.55;;;;;;;5.27;100.00;98133.88;5024012;28;20440;-64
2023/12/20 06:38:06;;;;;;;11.82;7.35;;;;;;;5.25;100.00;98140.13;5051735;28;20033;-64
2023/12/20 06:40:33;;;;;;;13.50;7.63;;;;;;;5.39;100.00;98145.00;5029534;28;20033;-64
2023/12/20 06:42:59;;;;;;;12.63;7.80;;;;;;;5.15;100.00;98109.94;5048020;28;20032;-65
2023/12/20 06:45:25;;;;;;;13.30;7.32;;;;;;;5.40;100.00;98156.94;5050962;28;20025;-65
2023/12/20 06:47:52;;;;;;;11.18;7.63;;;;;;;5.16;99.11;98124.44;5035673;28;20032;-65
2023/12/20 06:50:18;;;;;;;13.18;7.75;;;;;;;5.43;100.00;98168.78;5050978;28;20029;-65
2023/12/20 06:52:45;;;;;;;15.35;8.10;;;;;;;5.40;100.00;98167.25;5052904;28;20043;-65
2023/12/20 06:55:11;;;;;;;17.15;7.60;;;;;;;5.32;100.00;98178.16;5044793;28;20695;-65
2023/12/20 06:57:36;;;;;;;13.68;7.78;;;;;;;5.21;99.61;98180.78;5037809;28;20024;-65
2023/12/20 07:00:03;;;;;;;13.23;7.88;;;;;;;5.09;100.00;98166.28;5051698;28;20040;-63
2023/12/20 07:02:31;;;;;;;12.45;7.78;;;;;;;5.35;99.73;98167.63;5048427;28;20134;-65
2023/12/20 07:04:59;;;;;;;13.95;7.47;;;;;;;5.39;100.00;98171.59;5064704;28;21190;-65
2023/12/20 07:07:24;;;;;;;12.38;7.35;;;;;;;5.39;100.00;98156.13;5050032;28;20052;-63
2023/12/20 07:09:49;;;;;;;12.48;6.95;;;;;;;5.51;100.00;98146.59;5028617;28;20044;-64
2023/12/20 07:12:20;;;;;;;10.70;6.75;;;;;;;5.59;100.00;98145.97;5035944;28;20433;-65
2023/12/20 07:14:46;;;;;;;12.40;6.95;;;;;;;5.45;99.90;98110.16;5051577;28;20123;-65
2023/12/20 07:17:15;;;;;;;11.48;7.07;;;;;;;5.42;99.76;98105.25;5055132;28;20023;-63
2023/12/20 07:19:45;;;;;;;12.30;7.28;;;;;;;5.60;99.98;98134.69;5037712;28;20037;-65
2023/12/20 07:22:10;;;;;;;12.20;7.10;;;;;;;5.69;99.58;98144.25;5049195;28;20116;-64
2023/12/20 07:24:36;;;;;;;11.88;7.05;;;;;;;5.36;99.58;98083.34;5041521;28;20078;-65
2023/12/20 07:27:04;;;;;;;11.30;7.68;;;;;;;5.59;100.00;98130.50;5059138;28;20037;-66
2023/12/20 07:29:29;;;;;;;12.27;7.60;;;;;;;5.41;100.00;98114.75;5047578;28;20535;-65
2023/12/20 07:31:54;;;;;;;15.88;8.02;;;;;;;5.56;100.00;98128.16;5057677;28;20166;-65
2023/12/20 07:34:25;;;;;;;14.30;7.72;;;;;;;5.27;100.00;98097.00;5034974;28;20081;-65
2023/12/20 07:36:53;;;;;;;12.65;7.50;;;;;;;5.58;100.00;98141.75;5046304;28;20034;-65
2023/12/20 07:39:23;;;;;;;12.65;7.65;;;;;;;5.55;100.00;98131.69;5052447;28;20467;-65
2023/12/20 07:41:51;;;;;;;14.35;8.18;;;;;;;5.42;100.00;98113.81;5040990;28;20467;-64
2023/12/20 07:44:16;;;;;;;10.65;7.10;;;;;;;5.64;100.00;98146.41;5041909;28;20027;-62
2023/12/20 07:46:41;;;;;;;11.77;7.22;;;;;;;5.70;100.00;98155.41;5036318;28;20045;-65
2023/12/20 07:49:08;;;;;;;12.85;7.80;;;;;;;5.67;100.00;98165.97;5048956;28;20044;-63
2023/12/20 07:51:33;;;;;;;15.05;7.80;;;;;;;5.64;100.00;98168.78;5038609;28;20102;-64
2023/12/20 07:54:01;;;;;;;14.10;7.00;;;;;;;5.72;100.00;98166.41;5037046;28;20147;-66
2023/12/20 07:56:29;;;;;;;12.60;7.35;;;;;;;5.57;100.00;98117.72;5031026;28;20028;-65
2023/12/20 07:58:56;;;;;;;12.30;7.18;;;;;;;5.87;100.00;98149.69;5035730;28;20099;-63
2023/12/20 08:01:25;;;;;;;14.88;7.85;;;;;;;5.68;100.00;98101.38;5035127;28;20033;-65
2023/12/20 08:03:52;;;;;;;14.57;7.93;;;;;;;6.03;100.00;98148.47;5052146;28;20039;-64
2023/12/20 08:06:18;;;;;;;13.63;8.15;;;;;;;6.07;100.00;98142.09;5039640;28;21176;-64
2023/12/20 08:08:43;;;;;;;13.40;7.45;;;;;;;6.04;100.00;98129.44;5056079;28;20028;-65
2023/12/20 08:11:09;;;;;;;14.23;7.25;;;;;;;6.05;100.00;98129.31;5047679;28;20149;-65
2023/12/20 08:13:34;;;;;;;12.95;7.40;;;;;;;6.03;100.00;98130.41;5056679;28;20638;-64
2023/12/20 08:16:00;;;;;;;13.13;7.65;;;;;;;6.11;100.00;98136.53;5031422;28;20145;-65
2023/12/20 08:18:27;;;;;;;12.77;7.43;;;;;;;6.20;100.00;98119.47;5049063;28;20967;-65
2023/12/20 08:20:53;;;;;;;12.38;7.72;;;;;;;6.11;100.00;98117.66;5036683;28;20552;-64
2023/12/20 08:23:20;;;;;;;11.95;7.43;;;;;;;5.92;100.00;98093.34;5049878;28;20025;-64
2023/12/20 08:25:46;;;;;;;12.23;7.35;;;;;;;6.19;100.00;98132.50;5036636;28;20026;-65
2023/12/20 08:28:11;;;;;;;12.52;7.30;;;;;;;6.27;100.00;98135.25;5052749;28;21417;-64
2023/12/20 08:30:36;;;;;;;12.05;7.78;;;;;;;6.28;100.00;98137.72;5058859;28;20036;-71
2023/12/20 08:33:02;;;;;;;12.48;7.90;;;;;;;6.19;100.00;98132.50;5049666;28;20115;-71
2023/12/20 08:35:30;;;;;;;14.27;7.35;;;;;;;6.20;100.00;98126.41;5051827;28;20039;-69
2023/12/20 08:37:58;;;;;;;11.55;6.53;;;;;;;6.02;100.00;98087.44;5052244;28;20114;-68
2023/12/20 08:40:23;;;;;;;14.63;6.93;;;;;;;6.26;100.00;98121.53;5029854;28;20028;-69
2023/12/20 08:42:51;;;;;;;12.40;7.50;;;;;;;6.35;100.00;98113.00;5052592;28;20041;-69
2023/12/20 08:45:19;;;;;;;14.80;7.78;;;;;;;6.27;100.00;98106.84;5039803;28;20059;-68
2023/12/20 08:47:44;;;;;;;14.70;7.90;;;;;;;5.93;100.00;98069.19;5042628;28;20043;-70
2023/12/20 08:50:10;;;;;;;12.07;7.68;;;;;;;6.20;100.00;98108.31;5034853;28;20028;-68
2023/12/20 08:52:38;;;;;;;10.70;7.72;;;;;;;6.34;100.00;98115.72;5037346;28;20034;-71
2023/12/20 08:55:04;;;;;;;11.52;7.65;;;;;;;6.31;100.00;98110.81;5034059;28;20041;-70
2023/12/20 08:57:31;;;;;;;15.07;8.05;;;;;;;6.40;100.00;98127.28;5046486;28;20629;-70
2023/12/20 08:59:57;;;;;;;11.80;7.60;;;;;;;6.07;100.00;98085.31;5048241;28;20153;-69
2023/12/20 09:02:22;;;;;;;13.43;8.68;;;;;;;6.43;100.00;98129.63;5035493;28;20135;-69
2023/12/20 09:04:47;;;;;;;15.73;8.70;;;;;;;6.15;100.00;98081.13;5050755;28;20127;-69
2023/12/20 09:07:26;;;;;;;11.93;8.07;;;;;;;6.35;100.00;98101.84;5034520;28;20111;-70
2023/12/20 09:09:52;;;;;;;16.33;8.85;;;;;;;6.24;100.00;98074.38;5034956;28;20056;-71
2023/12/20 09:12:19;;;;;;;14.27;8.27;;;;;;;6.47;100.00;98097.41;5035756;28;21274;-70
2023/12/20 09:14:45;;;;;;;13.57;8.15;;;;;;;6.55;100.00;98097.56;5045299;28;20038;-68
2023/12/20 09:17:13;;;;;;;11.15;7.00;;;;;;;6.70;100.00;98098.03;5046969;28;20217;-69
2023/12/20 09:19:38;;;;;;;10.40;6.55;;;;;;;6.73;100.00;98101.16;5050847;28;20031;-67
2023/12/20 09:22:04;;;;;;;14.48;7.60;;;;;;;6.78;100.00;98095.59;5045137;28;21343;-68
2023/12/20 09:24:30;;;;;;;16.27;8.63;;;;;;;6.85;100.00;98098.47;5051528;28;20031;-70
2023/12/20 09:27:01;;;;;;;13.02;7.65;;;;;;;7.01;100.00;98091.00;5034306;28;20021;-70
2023/12/20 09:29:26;;;;;;;12.23;7.22;;;;;;;7.04;100.00;98103.66;5035361;28;20036;-70
2023/12/20 09:31:51;;;;;;;14.48;8.38;;;;;;;6.71;100.00;98053.94;5050664;28;20391;-69
2023/12/20 09:34:19;;;;;;;15.85;8.70;;;;;;;6.91;100.00;98059.16;5034922;28;20128;-70
2023/12/20 09:36:50;;;;;;;13.23;8.23;;;;;;;7.20;100.00;98091.97;5053317;28;20239;-69
2023/12/20 09:39:26;;;;;;;14.00;7.95;;;;;;;7.23;100.00;98100.28;5047543;28;20032;-68
2023/12/20 09:42:00;;;;;;;18.70;7.82;;;;;;;7.35;100.00;98107.88;5051072;28;20029;-71
2023/12/20 09:44:25;;;;;;;19.70;8.18;;;;;;;7.03;100.00;98070.19;5044202;28;20064;-68
2023/12/20 09:46:52;;;;;;;16.10;8.05;;;;;;;7.33;100.00;98102.84;5038583;28;20120;-69
2023/12/20 09:49:18;;;;;;;14.60;6.97;;;;;;;7.06;100.00;98060.41;5035229;28;20036;-70
2023/12/20 09:51:48;;;;;;;11.63;6.55;;;;;;;7.39;100.00;98107.50;5039295;28;20040;-69
2023/12/20 09:54:17;;;;;;;9.55;6.22;;;;;;;7.20;100.00;98066.91;5050435;28;20059;-67
2023/12/20 09:56:45;;;;;;;10.60;6.53;;;;;;;7.45;100.00;98106.94;5031462;28;20706;-68
2023/12/20 09:59:10;;;;;;;10.52;6.45;;;;;;;7.25;100.00;98054.41;5046181;28;20041;-69
2023/12/20 10:01:38;;;;;;;9.98;6.63;;;;;;;7.50;100.00;98091.81;5030391;28;20106;-70
2023/12/20 10:04:08;;;;;;;11.45;6.93;;;;;;;7.30;100.00;98066.91;5029650;28;20132;-69
2023/12/20 10:06:41;;;;;;;9.20;6.45;;;;;;;7.50;100.00;98084.06;5051031;28;20900;-70
2023/12/20 10:09:07;;;;;;;10.75;7.47;;;;;;;7.41;100.00;98078.88;5042445;28;20044;-71
2023/12/20 10:11:32;;;;;;;11.43;7.57;;;;;;;7.42;100.00;98083.09;5053633;28;20032;-71
2023/12/20 10:14:01;;;;;;;10.35;6.25;;;;;;;7.47;98.72;98083.53;5050377;28;20108;-68
2023/12/20 10:16:30;;;;;;;9.60;6.00;;;;;;;7.41;98.35;98086.63;5049822;28;20440;-70
2023/12/20 10:18:56;;;;;;;10.00;6.45;;;;;;;7.40;99.54;98079.84;5048369;28;20025;-70
2023/12/20 10:21:28;;;;;;;9.75;6.07;;;;;;;7.29;100.00;98057.53;5044248;28;20357;-69
2023/12/20 10:23:55;;;;;;;10.55;6.53;;;;;;;7.30;100.00;98053.97;5036882;28;20086;-68
2023/12/20 10:26:26;;;;;;;10.27;5.93;;;;;;;7.20;100.00;98025.53;5046775;28;20031;-69
2023/12/20 10:28:57;;;;;;;10.02;6.38;;;;;;;7.15;100.00;98001.06;5047901;28;20024;-69
2023/12/20 10:31:32;;;;;;;11.15;7.20;;;;;;;7.25;100.00;98013.03;5030130;28;20024;-70
2023/12/20 10:34:01;;;;;;;10.75;6.70;;;;;;;7.38;100.00;98050.72;5052357;28;20025;-68
2023/12/20 10:36:34;;;;;;;12.43;7.20;;;;;;;7.32;100.00;98046.91;5046751;28;20063;-67
2023/12/20 10:39:01;;;;;;;11.52;7.43;;;;;;;7.28;100.00;98035.19;5031668;28;20590;-69
2023/12/20 10:41:31;;;;;;;12.30;7.15;;;;;;;7.27;100.00;98028.41;5042114;28;20051;-68
2023/12/20 10:44:00;;;;;;;;;;;;;;;7.26;100.00;98037.91;5033555;28;20033;-68
2023/12/20 10:46:32;;;;;;;15.35;6.78;;;;;;;7.26;100.00;98021.59;5045879;28;20671;-69
2023/12/20 10:48:58;;;;;;;15.60;7.15;;;;;;;7.04;100.00;97987.31;5047326;28;20024;-67
2023/12/20 10:51:29;;;;;;;12.20;7.40;;;;;;;7.19;100.00;98016.16;5033616;28;20078;-69
2023/12/20 10:54:00;;;;;;;12.48;7.18;;;;;;;7.21;100.00;98003.09;5043995;28;20123;-68
2023/12/20 10:56:32;;;;;;;12.45;7.30;;;;;;;7.25;100.00;98005.28;5033631;28;20033;-68
2023/12/20 10:58:59;;;;;;;12.93;7.25;;;;;;;7.29;100.00;98019.53;5048982;28;20035;-68
2023/12/20 11:01:32;;;;;;;15.02;7.88;;;;;;;7.30;100.00;98026.38;5047765;28;20478;-67
2023/12/20 11:03:58;;;;;;;13.25;7.55;;;;;;;7.22;100.00;98010.72;5050239;28;20028;-66
2023/12/20 11:06:32;;;;;;;12.90;7.95;;;;;;;7.30;100.00;98003.09;5040733;28;20073;-69
2023/12/20 11:09:27;;;;;;;15.98;7.43;;;;;;;6.99;100.00;97973.16;5045922;28;20048;-69
2023/12/20 11:12:17;;;;;;;13.68;7.78;;;;;;;7.17;99.76;98002.53;5044675;28;20074;-68
2023/12/20 11:14:47;;;;;;;14.13;7.40;;;;;;;7.25;99.04;97992.34;5045614;28;20028;-68
2023/12/20 11:17:15;;;;;;;12.02;7.10;;;;;;;7.24;99.39;97997.66;5031635;28;20025;-67
2023/12/20 11:19:55;;;;;;;13.23;7.38;;;;;;;7.17;99.62;97994.78;5031459;28;20591;-69
2023/12/20 11:22:21;;;;;;;10.98;7.35;;;;;;;7.26;99.14;98001.72;5048029;28;20093;-67
2023/12/20 11:24:48;;;;;;;14.32;8.85;;;;;;;7.28;97.77;97973.13;5049511;28;20419;-68
2023/12/20 11:27:14;;;;;;;10.45;7.50;;;;;;;7.24;98.58;97982.94;5046653;28;20083;-69